sensor_id;sensor_type;location;lat;lon;timestamp;pressure;altitude;pressure_sealevel;temperature;humidity
24013;BME280;12220;50.194;18.948;2023-09-07T00:00:10;102758.84;;;16.74;66.16
24013;BME280;12220;50.194;18.948;2023-09-07T00:02:16;102760.61;;;16.61;66.26
24013;BME280;12220;50.194;18.948;2023-09-07T00:04:18;102764.95;;;16.51;66.41
24013;BME280;12220;50.194;18.948;2023-09-07T00:06:20;102764.73;;;16.39;66.64
24013;BME280;12220;50.194;18.948;2023-09-07T00:08:21;102760.66;;;16.31;66.89
24013;BME280;12220;50.194;18.948;2023-09-07T00:10:23;102766.49;;;16.26;67.11
24013;BME280;12220;50.194;18.948;2023-09-07T00:12:31;102766.69;;;16.23;67.22
24013;BME280;12220;50.194;18.948;2023-09-07T00:14:34;102770.42;;;16.22;67.31
24013;BME280;12220;50.194;18.948;2023-09-07T00:16:36;102783.47;;;16.20;67.47
24013;BME280;12220;50.194;18.948;2023-09-07T00:18:39;102759.38;;;16.22;67.48
24013;BME280;12220;50.194;18.948;2023-09-07T00:20:46;102766.69;;;16.23;67.55
24013;BME280;12220;50.194;18.948;2023-09-07T00:22:48;102768.47;;;16.24;67.57
24013;BME280;12220;50.194;18.948;2023-09-07T00:24:49;102771.14;;;16.26;67.54
24013;BME280;12220;50.194;18.948;2023-09-07T00:26:51;102772.20;;;16.23;67.43
24013;BME280;12220;50.194;18.948;2023-09-07T00:29:01;102767.84;;;16.19;67.43
24013;BME280;12220;50.194;18.948;2023-09-07T00:31:03;102769.94;;;16.15;67.52
24013;BME280;12220;50.194;18.948;2023-09-07T00:33:04;102763.69;;;16.12;67.65
24013;BME280;12220;50.194;18.948;2023-09-07T00:35:06;102763.69;;;16.12;67.71
24013;BME280;12220;50.194;18.948;2023-09-07T00:37:16;102771.00;;;16.13;67.74
24013;BME280;12220;50.194;18.948;2023-09-07T00:39:17;102768.23;;;16.13;67.76
24013;BME280;12220;50.194;18.948;2023-09-07T00:41:19;102762.61;;;16.14;67.70
24013;BME280;12220;50.194;18.948;2023-09-07T00:43:20;102768.23;;;16.13;67.59
24013;BME280;12220;50.194;18.948;2023-09-07T00:45:31;102762.13;;;16.08;67.58
24013;BME280;12220;50.194;18.948;2023-09-07T00:47:34;102766.25;;;16.00;67.63
24013;BME280;12220;50.194;18.948;2023-09-07T00:49:39;102761.98;;;15.95;67.64
24013;BME280;12220;50.194;18.948;2023-09-07T00:51:40;102762.33;;;15.89;67.60
24013;BME280;12220;50.194;18.948;2023-09-07T00:53:46;102760.95;;;15.81;67.56
24013;BME280;12220;50.194;18.948;2023-09-07T00:55:47;102767.06;;;15.71;67.67
24013;BME280;12220;50.194;18.948;2023-09-07T00:57:49;102759.34;;;15.61;67.81
24013;BME280;12220;50.194;18.948;2023-09-07T00:59:50;102788.30;;;15.54;68.00
24013;BME280;12220;50.194;18.948;2023-09-07T01:02:01;102759.35;;;15.45;68.12
24013;BME280;12220;50.194;18.948;2023-09-07T01:04:02;102759.73;;;15.39;68.29
24013;BME280;12220;50.194;18.948;2023-09-07T01:06:09;102756.32;;;15.34;68.43
24013;BME280;12220;50.194;18.948;2023-09-07T01:08:23;102757.58;;;15.28;68.53
24013;BME280;12220;50.194;18.948;2023-09-07T01:10:23;102759.55;;;15.26;68.63
24013;BME280;12220;50.194;18.948;2023-09-07T01:12:25;102777.25;;;15.22;68.65
24013;BME280;12220;50.194;18.948;2023-09-07T01:14:26;102767.37;;;15.18;68.73
24013;BME280;12220;50.194;18.948;2023-09-07T01:16:28;102763.91;;;15.14;68.82
24013;BME280;12220;50.194;18.948;2023-09-07T01:18:32;102768.69;;;15.11;68.84
24013;BME280;12220;50.194;18.948;2023-09-07T01:20:35;102769.94;;;15.05;68.93
24013;BME280;12220;50.194;18.948;2023-09-07T01:22:38;102773.83;;;15.01;69.09
24013;BME280;12220;50.194;18.948;2023-09-07T01:24:41;102770.38;;;14.97;69.25
24013;BME280;12220;50.194;18.948;2023-09-07T01:26:46;102774.18;;;14.95;69.35
24013;BME280;12220;50.194;18.948;2023-09-07T01:28:50;102777.82;;;14.95;69.49
24013;BME280;12220;50.194;18.948;2023-09-07T01:30:51;102770.38;;;14.97;69.56
24013;BME280;12220;50.194;18.948;2023-09-07T01:32:53;102774.84;;;15.00;69.53
24013;BME280;12220;50.194;18.948;2023-09-07T01:35:01;102773.74;;;15.03;69.53
24013;BME280;12220;50.194;18.948;2023-09-07T01:37:05;102771.90;;;15.03;69.58
24013;BME280;12220;50.194;18.948;2023-09-07T01:39:08;102775.37;;;15.07;69.67
24013;BME280;12220;50.194;18.948;2023-09-07T01:41:09;102771.55;;;15.09;69.76
24013;BME280;12220;50.194;18.948;2023-09-07T01:43:15;102773.24;;;15.12;69.71
24013;BME280;12220;50.194;18.948;2023-09-07T01:45:17;102770.48;;;15.12;69.73
24013;BME280;12220;50.194;18.948;2023-09-07T01:47:18;102777.76;;;15.13;69.77
24013;BME280;12220;50.194;18.948;2023-09-07T01:49:20;102771.27;;;15.14;69.82
24013;BME280;12220;50.194;18.948;2023-09-07T01:51:30;102771.27;;;15.14;69.83
24013;BME280;12220;50.194;18.948;2023-09-07T01:53:32;102766.66;;;15.14;69.93
24013;BME280;12220;50.194;18.948;2023-09-07T01:55:33;102764.78;;;15.15;69.92
24013;BME280;12220;50.194;18.948;2023-09-07T01:57:35;102754.71;;;15.14;69.87
24013;BME280;12220;50.194;18.948;2023-09-07T01:59:45;102758.53;;;15.11;69.76
24013;BME280;12220;50.194;18.948;2023-09-07T02:01:49;102746.89;;;15.06;69.76
24013;BME280;12220;50.194;18.948;2023-09-07T02:03:51;102753.55;;;15.02;69.82
24013;BME280;12220;50.194;18.948;2023-09-07T02:05:52;102748.30;;;14.97;69.87
24013;BME280;12220;50.194;18.948;2023-09-07T02:08:00;102754.00;;;14.94;69.85
24013;BME280;12220;50.194;18.948;2023-09-07T02:10:02;102751.50;;;14.90;69.94
24013;BME280;12220;50.194;18.948;2023-09-07T02:12:06;102753.36;;;14.89;70.07
24013;BME280;12220;50.194;18.948;2023-09-07T02:14:08;102757.03;;;14.90;70.15
24013;BME280;12220;50.194;18.948;2023-09-07T02:16:15;102760.66;;;14.90;70.22
24013;BME280;12220;50.194;18.948;2023-09-07T02:18:17;102755.93;;;14.92;70.22
24013;BME280;12220;50.194;18.948;2023-09-07T02:20:18;102758.61;;;14.94;70.21
24013;BME280;12220;50.194;18.948;2023-09-07T02:22:21;102752.95;;;14.97;70.24
24013;BME280;12220;50.194;18.948;2023-09-07T02:24:30;102758.27;;;15.00;70.22
24013;BME280;12220;50.194;18.948;2023-09-07T02:26:31;102752.59;;;15.03;70.23
24013;BME280;12220;50.194;18.948;2023-09-07T02:28:33;102756.23;;;15.04;70.14
24013;BME280;12220;50.194;18.948;2023-09-07T02:30:34;102763.71;;;15.02;69.99
24013;BME280;12220;50.194;18.948;2023-09-07T02:32:45;102760.13;;;14.99;69.92
24013;BME280;12220;50.194;18.948;2023-09-07T02:34:46;102750.41;;;14.92;69.77
24013;BME280;12220;50.194;18.948;2023-09-07T02:36:49;102751.65;;;14.87;69.77
24013;BME280;12220;50.194;18.948;2023-09-07T02:38:50;102755.68;;;14.81;69.84
24013;BME280;12220;50.194;18.948;2023-09-07T02:41:00;102749.68;;;14.73;69.89
24013;BME280;12220;50.194;18.948;2023-09-07T02:43:03;102747.27;;;14.67;70.05
24013;BME280;12220;50.194;18.948;2023-09-07T02:45:05;102749.29;;;14.63;70.21
24013;BME280;12220;50.194;18.948;2023-09-07T02:47:07;102747.51;;;14.62;70.31
24013;BME280;12220;50.194;18.948;2023-09-07T02:49:15;102753.84;;;14.64;70.36
24013;BME280;12220;50.194;18.948;2023-09-07T02:51:16;102752.88;;;14.65;70.41
24013;BME280;12220;50.194;18.948;2023-09-07T02:53:19;102751.97;;;14.64;70.26
24013;BME280;12220;50.194;18.948;2023-09-07T02:55:20;102755.64;;;14.65;70.15
24013;BME280;12220;50.194;18.948;2023-09-07T02:57:30;102754.90;;;14.61;70.04
24013;BME280;12220;50.194;18.948;2023-09-07T02:59:31;102802.87;;;14.57;69.98
24013;BME280;12220;50.194;18.948;2023-09-07T03:01:32;102761.85;;;14.51;70.01
24013;BME280;12220;50.194;18.948;2023-09-07T03:03:34;102761.24;;;14.46;70.16
24013;BME280;12220;50.194;18.948;2023-09-07T03:05:44;102761.29;;;14.44;70.24
24013;BME280;12220;50.194;18.948;2023-09-07T03:07:46;102760.41;;;14.44;70.32
24013;BME280;12220;50.194;18.948;2023-09-07T03:09:48;102748.41;;;14.45;70.34
24013;BME280;12220;50.194;18.948;2023-09-07T03:11:49;102498.41;;;12.96;70.16
24013;BME280;12220;50.194;18.948;2023-09-07T03:13:59;102749.20;;;14.47;70.15
24013;BME280;12220;50.194;18.948;2023-09-07T03:16:02;102749.39;;;14.44;70.22
24013;BME280;12220;50.194;18.948;2023-09-07T03:18:04;102752.23;;;14.42;70.03
24013;BME280;12220;50.194;18.948;2023-09-07T03:20:06;102754.19;;;14.40;70.01
24013;BME280;12220;50.194;18.948;2023-09-07T03:22:15;102750.61;;;14.38;70.09
24013;BME280;12220;50.194;18.948;2023-09-07T03:24:16;102757.03;;;14.39;70.13
24013;BME280;12220;50.194;18.948;2023-09-07T03:26:18;102749.65;;;14.39;70.18
24013;BME280;12220;50.194;18.948;2023-09-07T03:28:19;102751.44;;;14.40;70.20
24013;BME280;12220;50.194;18.948;2023-09-07T03:30:29;102764.13;;;14.43;70.25
24013;BME280;12220;50.194;18.948;2023-09-07T03:32:32;102751.19;;;14.45;70.27
24013;BME280;12220;50.194;18.948;2023-09-07T03:34:34;102757.58;;;14.45;70.27
24013;BME280;12220;50.194;18.948;2023-09-07T03:36:35;102757.48;;;14.47;70.25
24013;BME280;12220;50.194;18.948;2023-09-07T03:38:44;102754.73;;;14.47;70.20
24013;BME280;12220;50.194;18.948;2023-09-07T03:40:45;102757.48;;;14.47;70.15
24013;BME280;12220;50.194;18.948;2023-09-07T03:42:47;102755.64;;;14.47;70.12
24013;BME280;12220;50.194;18.948;2023-09-07T03:44:48;102761.16;;;14.47;70.19
24013;BME280;12220;50.194;18.948;2023-09-07T03:47:00;102755.64;;;14.47;70.23
24013;BME280;12220;50.194;18.948;2023-09-07T03:49:02;102761.06;;;14.49;70.24
24013;BME280;12220;50.194;18.948;2023-09-07T03:51:06;102762.91;;;14.48;70.29
24013;BME280;12220;50.194;18.948;2023-09-07T03:53:08;102771.18;;;14.48;70.21
24013;BME280;12220;50.194;18.948;2023-09-07T03:55:14;102768.59;;;14.45;70.14
24013;BME280;12220;50.194;18.948;2023-09-07T03:57:15;102763.26;;;14.42;70.04
24013;BME280;12220;50.194;18.948;2023-09-07T03:59:17;102771.78;;;14.38;69.98
24013;BME280;12220;50.194;18.948;2023-09-07T04:01:18;102768.19;;;14.36;70.07
24013;BME280;12220;50.194;18.948;2023-09-07T04:03:29;102770.16;;;14.34;70.12
24013;BME280;12220;50.194;18.948;2023-09-07T04:05:30;102770.24;;;14.32;70.10
24013;BME280;12220;50.194;18.948;2023-09-07T04:07:31;102775.84;;;14.30;70.13
24013;BME280;12220;50.194;18.948;2023-09-07T04:09:34;102773.17;;;14.29;70.17
24013;BME280;12220;50.194;18.948;2023-09-07T04:11:44;102775.04;;;14.28;70.20
24013;BME280;12220;50.194;18.948;2023-09-07T04:13:45;102776.80;;;14.29;70.26
24013;BME280;12220;50.194;18.948;2023-09-07T04:15:47;102776.80;;;14.29;70.32
24013;BME280;12220;50.194;18.948;2023-09-07T04:17:50;102783.14;;;14.32;70.34
24013;BME280;12220;50.194;18.948;2023-09-07T04:19:59;102779.38;;;14.33;70.31
24013;BME280;12220;50.194;18.948;2023-09-07T04:22:00;102786.78;;;14.32;70.36
24013;BME280;12220;50.194;18.948;2023-09-07T04:24:02;102781.18;;;14.34;70.35
24013;BME280;12220;50.194;18.948;2023-09-07T04:26:07;102789.37;;;14.35;70.33
24013;BME280;12220;50.194;18.948;2023-09-07T04:28:14;102790.25;;;14.36;70.27
24013;BME280;12220;50.194;18.948;2023-09-07T04:30:15;102784.73;;;14.36;70.26
24013;BME280;12220;50.194;18.948;2023-09-07T04:32:17;102790.25;;;14.36;70.31
24013;BME280;12220;50.194;18.948;2023-09-07T04:34:23;102794.88;;;14.35;70.39
24013;BME280;12220;50.194;18.948;2023-09-07T04:36:29;102794.88;;;14.35;70.17
24013;BME280;12220;50.194;18.948;2023-09-07T04:38:30;102792.54;;;14.27;70.06
24013;BME280;12220;50.194;18.948;2023-09-07T04:40:31;102797.48;;;14.21;70.11
24013;BME280;12220;50.194;18.948;2023-09-07T04:42:33;102789.63;;;14.13;70.35
24013;BME280;12220;50.194;18.948;2023-09-07T04:44:43;102796.27;;;14.09;70.44
24013;BME280;12220;50.194;18.948;2023-09-07T04:46:45;102796.34;;;14.07;70.57
24013;BME280;12220;50.194;18.948;2023-09-07T04:48:46;102791.71;;;14.08;70.66
24013;BME280;12220;50.194;18.948;2023-09-07T04:50:47;102787.02;;;14.10;70.70
24013;BME280;12220;50.194;18.948;2023-09-07T04:52:58;102797.01;;;14.12;70.72
24013;BME280;12220;50.194;18.948;2023-09-07T04:55:00;102788.66;;;14.14;70.72
24013;BME280;12220;50.194;18.948;2023-09-07T04:57:01;102793.09;;;14.17;70.69
24013;BME280;12220;50.194;18.948;2023-09-07T04:59:03;102790.26;;;14.18;70.60
24013;BME280;12220;50.194;18.948;2023-09-07T05:01:13;102794.96;;;14.16;70.51
24013;BME280;12220;50.194;18.948;2023-09-07T05:03:15;102800.63;;;14.13;70.54
24013;BME280;12220;50.194;18.948;2023-09-07T05:05:16;102801.69;;;14.10;70.64
24013;BME280;12220;50.194;18.948;2023-09-07T05:07:18;102796.16;;;14.10;70.73
24013;BME280;12220;50.194;18.948;2023-09-07T05:09:28;102798.06;;;14.10;70.78
24013;BME280;12220;50.194;18.948;2023-09-07T05:11:30;102806.31;;;14.10;70.87
24013;BME280;12220;50.194;18.948;2023-09-07T05:13:35;102806.23;;;14.11;70.94
24013;BME280;12220;50.194;18.948;2023-09-07T05:15:36;102810.78;;;14.12;70.96
24013;BME280;12220;50.194;18.948;2023-09-07T05:17:43;102804.43;;;14.10;71.00
24013;BME280;12220;50.194;18.948;2023-09-07T05:19:45;102807.20;;;14.10;71.14
24013;BME280;12220;50.194;18.948;2023-09-07T05:21:46;102799.01;;;14.09;71.33
24013;BME280;12220;50.194;18.948;2023-09-07T05:23:49;102808.16;;;14.09;71.40
24013;BME280;12220;50.194;18.948;2023-09-07T05:25:58;102802.64;;;14.09;71.51
24013;BME280;12220;50.194;18.948;2023-09-07T05:27:59;102804.36;;;14.12;71.59
24013;BME280;12220;50.194;18.948;2023-09-07T05:30:02;102797.72;;;14.16;71.62
24013;BME280;12220;50.194;18.948;2023-09-07T05:32:03;102798.51;;;14.18;71.60
24013;BME280;12220;50.194;18.948;2023-09-07T05:34:13;102800.13;;;14.22;71.66
24013;BME280;12220;50.194;18.948;2023-09-07T05:36:14;102809.16;;;14.26;71.76
24013;BME280;12220;50.194;18.948;2023-09-07T05:38:16;102801.60;;;14.29;71.88
24013;BME280;12220;50.194;18.948;2023-09-07T05:40:17;102801.35;;;14.34;71.95
24013;BME280;12220;50.194;18.948;2023-09-07T05:42:28;102802.19;;;14.36;71.94
24013;BME280;12220;50.194;18.948;2023-09-07T05:44:29;102811.24;;;14.38;72.05
24013;BME280;12220;50.194;18.948;2023-09-07T05:46:31;102811.07;;;14.41;72.17
24013;BME280;12220;50.194;18.948;2023-09-07T05:48:32;102811.83;;;14.45;72.31
24013;BME280;12220;50.194;18.948;2023-09-07T05:50:44;102591.56;;;13.21;72.24
24013;BME280;12220;50.194;18.948;2023-09-07T05:52:45;102809.52;;;14.53;72.50
24013;BME280;12220;50.194;18.948;2023-09-07T05:54:46;102803.87;;;14.56;72.63
24013;BME280;12220;50.194;18.948;2023-09-07T05:56:48;102801.82;;;14.60;72.71
24013;BME280;12220;50.194;18.948;2023-09-07T05:58:59;102812.63;;;14.64;72.77
24013;BME280;12220;50.194;18.948;2023-09-07T06:01:00;102818.90;;;14.68;72.92
24013;BME280;12220;50.194;18.948;2023-09-07T06:03:02;102821.47;;;14.71;73.10
24013;BME280;12220;50.194;18.948;2023-09-07T06:05:05;102821.22;;;14.76;73.26
24013;BME280;12220;50.194;18.948;2023-09-07T06:07:13;102823.72;;;14.80;73.37
24013;BME280;12220;50.194;18.948;2023-09-07T06:09:14;102822.67;;;14.83;73.53
24013;BME280;12220;50.194;18.948;2023-09-07T06:11:16;102829.80;;;14.87;73.68
24013;BME280;12220;50.194;18.948;2023-09-07T06:13:17;102817.63;;;14.91;73.81
24013;BME280;12220;50.194;18.948;2023-09-07T06:15:29;102830.19;;;14.97;73.92
24013;BME280;12220;50.194;18.948;2023-09-07T06:17:30;102823.59;;;14.99;74.07
24013;BME280;12220;50.194;18.948;2023-09-07T06:19:32;102827.08;;;15.03;74.16
24013;BME280;12220;50.194;18.948;2023-09-07T06:21:34;102822.18;;;15.08;74.24
24013;BME280;12220;50.194;18.948;2023-09-07T06:23:43;102832.81;;;15.16;74.32
24013;BME280;12220;50.194;18.948;2023-09-07T06:25:44;102824.17;;;15.22;74.49
24013;BME280;12220;50.194;18.948;2023-09-07T06:27:46;102832.01;;;15.30;74.70
24013;BME280;12220;50.194;18.948;2023-09-07T06:29:47;102823.37;;;15.36;74.80
24013;BME280;12220;50.194;18.948;2023-09-07T06:32:00;102827.38;;;15.46;74.95
24013;BME280;12220;50.194;18.948;2023-09-07T06:34:01;102834.34;;;15.54;75.05
24013;BME280;12220;50.194;18.948;2023-09-07T06:36:03;102838.41;;;15.62;75.21
24013;BME280;12220;50.194;18.948;2023-09-07T06:38:05;102840.76;;;15.70;75.40
24013;BME280;12220;50.194;18.948;2023-09-07T06:40:12;102841.06;;;15.81;75.44
24013;BME280;12220;50.194;18.948;2023-09-07T06:42:16;102835.95;;;15.90;75.53
24013;BME280;12220;50.194;18.948;2023-09-07T06:44:17;102842.71;;;16.00;75.53
24013;BME280;12220;50.194;18.948;2023-09-07T06:46:19;102841.36;;;16.07;75.58
24013;BME280;12220;50.194;18.948;2023-09-07T06:48:27;102842.49;;;16.19;75.51
24013;BME280;12220;50.194;18.948;2023-09-07T06:50:28;102844.62;;;16.30;75.60
24013;BME280;12220;50.194;18.948;2023-09-07T06:52:30;102854.13;;;16.40;75.65
24013;BME280;12220;50.194;18.948;2023-09-07T06:54:31;102842.20;;;16.54;75.71
24013;BME280;12220;50.194;18.948;2023-09-07T06:56:42;102843.04;;;16.70;75.68
24013;BME280;12220;50.194;18.948;2023-09-07T06:58:43;102844.91;;;16.84;75.41
24013;BME280;12220;50.194;18.948;2023-09-07T07:00:48;102847.94;;;16.96;75.20
24013;BME280;12220;50.194;18.948;2023-09-07T07:02:49;102624.67;;;15.81;74.88
24013;BME280;12220;50.194;18.948;2023-09-07T07:04:57;102845.58;;;17.18;74.95
24013;BME280;12220;50.194;18.948;2023-09-07T07:06:58;102838.45;;;17.29;74.81
24013;BME280;12220;50.194;18.948;2023-09-07T07:09:05;102841.47;;;17.38;74.57
24013;BME280;12220;50.194;18.948;2023-09-07T07:11:06;102838.89;;;17.50;74.41
24013;BME280;12220;50.194;18.948;2023-09-07T07:13:12;102843.81;;;17.59;74.22
24013;BME280;12220;50.194;18.948;2023-09-07T07:15:13;102843.32;;;17.67;74.06
24013;BME280;12220;50.194;18.948;2023-09-07T07:17:15;102846.34;;;17.76;74.11
24013;BME280;12220;50.194;18.948;2023-09-07T07:19:16;102836.44;;;17.87;73.95
24013;BME280;12220;50.194;18.948;2023-09-07T07:21:27;102840.30;;;17.99;73.83
24013;BME280;12220;50.194;18.948;2023-09-07T07:23:28;102834.86;;;18.10;73.90
24013;BME280;12220;50.194;18.948;2023-09-07T07:25:30;102835.72;;;18.25;73.74
24013;BME280;12220;50.194;18.948;2023-09-07T07:27:38;102833.85;;;18.38;73.46
24013;BME280;12220;50.194;18.948;2023-09-07T07:29:45;102845.09;;;18.50;73.17
24013;BME280;12220;50.194;18.948;2023-09-07T07:31:46;102837.89;;;18.60;72.89
24013;BME280;12220;50.194;18.948;2023-09-07T07:33:48;102836.12;;;18.72;72.66
24013;BME280;12220;50.194;18.948;2023-09-07T07:35:50;102832.33;;;18.86;72.45
24013;BME280;12220;50.194;18.948;2023-09-07T07:37:56;102841.60;;;18.99;72.17
24013;BME280;12220;50.194;18.948;2023-09-07T07:39:58;102834.38;;;19.09;71.92
24013;BME280;12220;50.194;18.948;2023-09-07T07:41:59;102841.02;;;19.20;71.51
24013;BME280;12220;50.194;18.948;2023-09-07T07:44:01;102833.66;;;19.31;71.27
24013;BME280;12220;50.194;18.948;2023-09-07T07:46:11;102863.19;;;19.45;70.84
24013;BME280;12220;50.194;18.948;2023-09-07T07:48:16;102840.92;;;19.58;70.47
24013;BME280;12220;50.194;18.948;2023-09-07T07:50:18;102840.02;;;19.71;69.99
24013;BME280;12220;50.194;18.948;2023-09-07T07:52:19;102838.11;;;19.84;69.53
24013;BME280;12220;50.194;18.948;2023-09-07T07:54:26;102839.91;;;19.96;69.05
24013;BME280;12220;50.194;18.948;2023-09-07T07:56:29;102833.42;;;20.09;68.50
24013;BME280;12220;50.194;18.948;2023-09-07T07:58:31;102835.37;;;20.19;67.79
24013;BME280;12220;50.194;18.948;2023-09-07T08:00:32;102841.86;;;20.31;67.39
24013;BME280;12220;50.194;18.948;2023-09-07T08:02:41;102840.91;;;20.44;67.22
24013;BME280;12220;50.194;18.948;2023-09-07T08:04:42;102843.06;;;20.51;66.94
24013;BME280;12220;50.194;18.948;2023-09-07T08:06:44;102841.34;;;20.62;66.81
24013;BME280;12220;50.194;18.948;2023-09-07T08:08:45;102842.40;;;20.72;66.45
24013;BME280;12220;50.194;18.948;2023-09-07T08:10:56;102848.78;;;20.85;66.15
24013;BME280;12220;50.194;18.948;2023-09-07T08:14:34;102844.46;;;21.04;65.49
24013;BME280;12220;50.194;18.948;2023-09-07T08:16:36;102873.22;;;21.16;65.35
24013;BME280;12220;50.194;18.948;2023-09-07T08:18:38;102844.49;;;21.27;65.01
24013;BME280;12220;50.194;18.948;2023-09-07T08:20:48;102849.16;;;21.37;64.89
24013;BME280;12220;50.194;18.948;2023-09-07T08:22:49;102846.77;;;21.44;64.71
24013;BME280;12220;50.194;18.948;2023-09-07T08:24:53;102852.36;;;21.55;64.46
24013;BME280;12220;50.194;18.948;2023-09-07T08:26:56;102846.88;;;21.65;64.14
24013;BME280;12220;50.194;18.948;2023-09-07T08:29:03;102848.78;;;21.76;63.61
24013;BME280;12220;50.194;18.948;2023-09-07T08:31:09;102847.98;;;21.85;62.84
24013;BME280;12220;50.194;18.948;2023-09-07T08:33:11;102840.60;;;21.96;62.89
24013;BME280;12220;50.194;18.948;2023-09-07T08:35:13;102844.36;;;22.06;62.86
24013;BME280;12220;50.194;18.948;2023-09-07T08:37:18;102850.05;;;22.16;62.75
24013;BME280;12220;50.194;18.948;2023-09-07T08:39:21;102846.58;;;22.23;62.70
24013;BME280;12220;50.194;18.948;2023-09-07T08:41:23;102848.63;;;22.33;62.29
24013;BME280;12220;50.194;18.948;2023-09-07T08:43:26;102844.01;;;22.43;61.58
24013;BME280;12220;50.194;18.948;2023-09-07T08:45:39;102843.04;;;22.54;61.18
24013;BME280;12220;50.194;18.948;2023-09-07T08:47:44;102844.90;;;22.65;60.73
24013;BME280;12220;50.194;18.948;2023-09-07T08:49:47;102846.58;;;22.77;60.63
24013;BME280;12220;50.194;18.948;2023-09-07T08:51:49;102846.52;;;22.88;60.35
24013;BME280;12220;50.194;18.948;2023-09-07T08:53:52;102841.87;;;22.98;60.21
24013;BME280;12220;50.194;18.948;2023-09-07T08:55:53;102845.61;;;23.09;59.26
24013;BME280;12220;50.194;18.948;2023-09-07T08:57:56;102850.52;;;23.17;58.74
24013;BME280;12220;50.194;18.948;2023-09-07T08:59:58;102844.98;;;23.26;58.63
24013;BME280;12220;50.194;18.948;2023-09-07T09:02:09;102847.35;;;23.31;56.92
24013;BME280;12220;50.194;18.948;2023-09-07T09:04:12;102851.21;;;23.40;57.38
24013;BME280;12220;50.194;18.948;2023-09-07T09:06:15;102833.86;;;23.46;57.53
24013;BME280;12220;50.194;18.948;2023-09-07T09:08:17;102839.63;;;23.54;57.10
24013;BME280;12220;50.194;18.948;2023-09-07T09:10:25;102844.95;;;23.57;56.12
24013;BME280;12220;50.194;18.948;2023-09-07T09:12:26;102844.36;;;23.63;56.70
24013;BME280;12220;50.194;18.948;2023-09-07T09:14:30;102845.55;;;23.71;56.25
24013;BME280;12220;50.194;18.948;2023-09-07T09:16:32;102847.05;;;23.75;55.96
24013;BME280;12220;50.194;18.948;2023-09-07T09:18:35;102834.25;;;23.82;55.73
24013;BME280;12220;50.194;18.948;2023-09-07T09:20:38;102835.62;;;23.88;55.93
24013;BME280;12220;50.194;18.948;2023-09-07T09:22:40;102841.54;;;23.94;55.89
24013;BME280;12220;50.194;18.948;2023-09-07T09:24:47;102850.07;;;24.02;55.88
24013;BME280;12220;50.194;18.948;2023-09-07T09:26:50;102847.44;;;24.11;55.07
24013;BME280;12220;50.194;18.948;2023-09-07T09:28:52;102836.81;;;24.14;54.04
24013;BME280;12220;50.194;18.948;2023-09-07T09:30:55;102846.40;;;24.22;53.39
24013;BME280;12220;50.194;18.948;2023-09-07T09:32:56;102844.21;;;24.25;52.57
24013;BME280;12220;50.194;18.948;2023-09-07T09:35:05;102841.84;;;24.30;52.49
24013;BME280;12220;50.194;18.948;2023-09-07T09:37:14;102840.52;;;24.34;51.97
24013;BME280;12220;50.194;18.948;2023-09-07T09:39:24;102844.49;;;24.42;52.18
24013;BME280;12220;50.194;18.948;2023-09-07T09:41:26;102844.19;;;24.45;51.19
24013;BME280;12220;50.194;18.948;2023-09-07T09:43:28;102839.76;;;24.52;51.63
24013;BME280;12220;50.194;18.948;2023-09-07T09:45:31;102841.23;;;24.56;51.37
24013;BME280;12220;50.194;18.948;2023-09-07T09:47:33;102838.91;;;24.61;51.36
24013;BME280;12220;50.194;18.948;2023-09-07T09:49:37;102836.39;;;24.68;51.11
24013;BME280;12220;50.194;18.948;2023-09-07T09:51:40;102833.73;;;24.76;51.42
24013;BME280;12220;50.194;18.948;2023-09-07T09:53:43;102833.42;;;24.79;51.31
24013;BME280;12220;50.194;18.948;2023-09-07T09:55:46;102831.34;;;24.81;50.13
24013;BME280;12220;50.194;18.948;2023-09-07T09:57:50;102828.67;;;24.89;50.89
24013;BME280;12220;50.194;18.948;2023-09-07T09:59:52;102832.95;;;24.94;51.01
24013;BME280;12220;50.194;18.948;2023-09-07T10:01:54;102830.71;;;24.97;51.01
24013;BME280;12220;50.194;18.948;2023-09-07T10:03:58;102833.80;;;25.04;50.83
24013;BME280;12220;50.194;18.948;2023-09-07T10:06:07;102830.53;;;25.09;50.84
24013;BME280;12220;50.194;18.948;2023-09-07T10:08:12;102836.59;;;25.14;50.85
24013;BME280;12220;50.194;18.948;2023-09-07T10:10:15;102829.75;;;25.16;50.88
24013;BME280;12220;50.194;18.948;2023-09-07T10:12:26;102833.16;;;25.20;50.58
24013;BME280;12220;50.194;18.948;2023-09-07T10:16:47;102832.36;;;25.28;49.59
24013;BME280;12220;50.194;18.948;2023-09-07T10:18:49;102830.91;;;25.33;50.08
24013;BME280;12220;50.194;18.948;2023-09-07T10:20:57;102828.54;;;25.38;50.54
24013;BME280;12220;50.194;18.948;2023-09-07T10:23:03;102826.87;;;25.46;50.78
24013;BME280;12220;50.194;18.948;2023-09-07T10:25:04;102822.25;;;25.54;50.52
24013;BME280;12220;50.194;18.948;2023-09-07T10:27:13;102824.57;;;25.59;50.54
24013;BME280;12220;50.194;18.948;2023-09-07T10:29:25;102819.52;;;25.63;49.64
24013;BME280;12220;50.194;18.948;2023-09-07T10:31:28;102824.98;;;25.64;49.93
24013;BME280;12220;50.194;18.948;2023-09-07T10:33:32;102823.46;;;25.70;49.85
24013;BME280;12220;50.194;18.948;2023-09-07T10:35:35;102820.18;;;25.74;49.89
24013;BME280;12220;50.194;18.948;2023-09-07T10:37:46;102818.12;;;25.77;49.69
24013;BME280;12220;50.194;18.948;2023-09-07T10:39:50;102818.68;;;25.80;49.66
24013;BME280;12220;50.194;18.948;2023-09-07T10:41:52;102832.96;;;25.87;49.77